Time;durP1;ratioP1;P1;durP2;ratioP2;P2;SDS_P1;SDS_P2;PMS_P1;PMS_P2;Temp;Humidity;BMP_temperature;BMP_pressure;BME280_temperature;BME280_humidity;BME280_pressure;Samples;Min_cycle;Max_cycle;Signal;HPM_P1;HPM_P2
2024/01/30 00:00:41;;;;;;;14.40;9.48;;;4.50;99.90;;;;;;12599234;28;20131;-78
2024/01/30 00:06:46;;;;;;;13.20;8.80;;;4.50;99.90;;;;;;12619509;28;20143;-78
2024/01/30 00:12:48;;;;;;;14.73;10.18;;;4.70;99.90;;;;;;12621874;28;20058;-80
2024/01/30 00:18:53;;;;;;;16.88;10.50;;;4.90;99.90;;;;;;12608236;28;20466;-79
2024/01/30 00:24:55;;;;;;;15.05;10.18;;;4.70;99.90;;;;;;12629816;28;20044;-79
2024/01/30 00:30:57;;;;;;;12.90;10.02;;;4.70;99.90;;;;;;12620170;28;20052;-79
2024/01/30 00:36:59;;;;;;;14.88;10.77;;;4.60;99.90;;;;;;12604616;28;20056;-79
2024/01/30 00:43:01;;;;;;;14.55;9.93;;;4.50;99.90;;;;;;12620626;28;20060;-78
2024/01/30 00:49:03;;;;;;;14.27;9.88;;;4.20;99.90;;;;;;12609066;28;20136;-79
2024/01/30 00:55:05;;;;;;;13.10;9.48;;;4.20;99.90;;;;;;12614336;28;20052;-79
2024/01/30 01:01:07;;;;;;;14.30;9.88;;;4.10;99.90;;;;;;12614008;28;20051;-79
2024/01/30 01:07:10;;;;;;;14.98;9.48;;;4.20;99.90;;;;;;12609201;28;20055;-82
2024/01/30 01:13:12;;;;;;;14.90;9.88;;;4.20;99.90;;;;;;12608255;28;20052;-82
2024/01/30 01:19:14;;;;;;;15.90;10.90;;;4.10;99.90;;;;;;12602280;28;20047;-82
2024/01/30 01:25:16;;;;;;;17.92;10.85;;;4.00;99.90;;;;;;12614476;28;20069;-82
2024/01/30 01:31:19;;;;;;;15.30;10.48;;;4.00;99.90;;;;;;12619474;28;20068;-82
2024/01/30 01:37:22;;;;;;;12.57;10.57;;;3.90;99.90;;;;;;12621192;28;20044;-81
2024/01/30 01:43:24;;;;;;;15.13;10.77;;;3.80;99.90;;;;;;12634975;28;20086;-82
2024/01/30 01:49:27;;;;;;;14.32;11.63;;;3.90;99.90;;;;;;12622135;28;20048;-82
2024/01/30 01:55:30;;;;;;;14.63;11.25;;;4.00;99.90;;;;;;12604213;28;20499;-82
2024/01/30 02:01:33;;;;;;;14.85;11.05;;;4.10;99.90;;;;;;12593382;28;20055;-82
2024/01/30 02:07:35;;;;;;;11.82;9.68;;;4.30;99.90;;;;;;12603235;28;20048;-81
2024/01/30 02:13:37;;;;;;;12.05;10.10;;;4.70;99.90;;;;;;12620553;28;20553;-82
2024/01/30 02:19:40;;;;;;;13.85;11.40;;;4.70;99.90;;;;;;12592982;28;20044;-83
2024/01/30 02:25:45;;;;;;;49.70;46.47;;;5.20;99.90;;;;;;12615236;28;20055;-83
2024/01/30 02:31:47;;;;;;;57.65;53.95;;;5.30;99.90;;;;;;12630120;28;20067;-83
2024/01/30 02:37:49;;;;;;;51.30;47.90;;;5.10;99.90;;;;;;12596734;28;20167;-82
2024/01/30 02:43:51;;;;;;;56.65;53.20;;;5.70;99.90;;;;;;12594802;28;21105;-83
2024/01/30 02:49:53;;;;;;;65.07;61.08;;;5.90;99.90;;;;;;12597359;28;20055;-83
2024/01/30 02:55:57;;;;;;;68.28;64.38;;;6.10;99.90;;;;;;12598175;28;20103;-83
2024/01/30 03:01:59;;;;;;;70.07;66.03;;;6.20;99.90;;;;;;12602306;28;20063;-83
2024/01/30 03:08:01;;;;;;;75.93;71.47;;;6.20;99.90;;;;;;12603656;28;20083;-83
2024/01/30 03:14:04;;;;;;;70.18;66.13;;;5.70;99.90;;;;;;12582663;28;20048;-83
2024/01/30 03:20:06;;;;;;;75.63;71.28;;;6.00;99.90;;;;;;12604880;28;20067;-83
2024/01/30 03:26:09;;;;;;;79.38;74.88;;;6.10;99.90;;;;;;12611755;28;20053;-82
2024/01/30 03:32:11;;;;;;;83.82;79.15;;;6.30;99.90;;;;;;12592957;28;20054;-82
2024/01/30 03:38:13;;;;;;;89.53;84.47;;;6.40;99.90;;;;;;12593376;28;20044;-83
2024/01/30 03:44:15;;;;;;;85.85;81.15;;;6.40;99.90;;;;;;12584976;28;20492;-81
2024/01/30 03:50:16;;;;;;;93.72;88.53;;;6.30;99.90;;;;;;12623719;28;20059;-84
2024/01/30 03:56:18;;;;;;;91.13;86.07;;;6.40;99.90;;;;;;12520600;28;20068;-83
2024/01/30 04:02:21;;;;;;;89.88;84.72;;;6.40;99.90;;;;;;12490447;28;20057;-84
2024/01/30 04:08:24;;;;;;;89.57;84.65;;;6.50;99.90;;;;;;12502130;28;20675;-83
2024/01/30 04:14:25;;;;;;;91.43;86.45;;;6.60;99.90;;;;;;12492340;28;20053;-83
2024/01/30 04:20:27;;;;;;;93.30;87.85;;;6.60;99.90;;;;;;12524323;28;20481;-83
2024/01/30 04:26:29;;;;;;;93.07;87.80;;;6.60;99.90;;;;;;12510633;28;20053;-84
2024/01/30 04:32:32;;;;;;;92.03;86.93;;;6.60;99.90;;;;;;12517489;28;20057;-83
2024/01/30 04:38:34;;;;;;;96.05;90.65;;;6.70;99.90;;;;;;12508565;28;20056;-81
2024/01/30 04:44:36;;;;;;;92.80;87.45;;;6.70;99.90;;;;;;12516782;28;20045;-81
2024/01/30 04:50:38;;;;;;;92.13;87.05;;;6.80;99.90;;;;;;12517948;28;20087;-82
2024/01/30 04:56:39;;;;;;;92.25;87.22;;;6.90;99.90;;;;;;12563211;28;20508;-80
2024/01/30 05:02:41;;;;;;;92.10;87.13;;;7.00;99.90;;;;;;12560023;28;20052;-80
2024/01/30 05:08:43;;;;;;;91.50;86.38;;;7.00;99.90;;;;;;12585233;28;20055;-82
2024/01/30 05:14:45;;;;;;;93.70;88.40;;;7.10;99.90;;;;;;12557030;28;20198;-82
2024/01/30 05:20:47;;;;;;;89.38;84.28;;;7.10;99.90;;;;;;12586202;28;20045;-82
2024/01/30 05:26:51;;;;;;;84.95;80.18;;;7.20;99.90;;;;;;12577533;28;20049;-81
2024/01/30 05:32:53;;;;;;;94.07;88.80;;;7.20;99.90;;;;;;12577884;28;20044;-81
2024/01/30 05:38:56;;;;;;;85.40;80.55;;;7.10;99.90;;;;;;12559252;28;20091;-81
2024/01/30 05:44:58;;;;;;;81.32;76.63;;;7.10;99.90;;;;;;12571247;28;20052;-81
2024/01/30 05:51:00;;;;;;;78.95;74.45;;;7.10;99.90;;;;;;12551004;28;20064;-83
2024/01/30 05:57:02;;;;;;;76.13;71.38;;;7.10;99.90;;;;;;12563407;28;20110;-83
2024/01/30 06:03:04;;;;;;;80.00;75.22;;;7.00;99.90;;;;;;12563270;28;20075;-82
2024/01/30 06:09:08;;;;;;;82.85;78.15;;;7.00;99.90;;;;;;12563897;28;20061;-81
2024/01/30 06:15:12;;;;;;;87.45;82.45;;;7.10;99.90;;;;;;12563386;28;20091;-83
2024/01/30 06:21:14;;;;;;;84.57;79.90;;;7.10;99.90;;;;;;12559514;28;20123;-83
2024/01/30 06:27:17;;;;;;;88.95;83.95;;;7.20;99.90;;;;;;12559785;28;20051;-83
2024/01/30 06:33:19;;;;;;;88.43;83.50;;;7.20;99.90;;;;;;12588266;28;20063;-83
2024/01/30 06:39:21;;;;;;;88.00;83.03;;;7.00;99.90;;;;;;12568311;28;20056;-83
2024/01/30 06:45:23;;;;;;;89.22;84.25;;;7.10;99.90;;;;;;12564858;28;20056;-83
2024/01/30 06:51:25;;;;;;;87.75;82.65;;;7.00;99.90;;;;;;12552538;28;20527;-83
2024/01/30 06:57:27;;;;;;;89.18;84.07;;;7.10;99.90;;;;;;12586583;28;20090;-83
2024/01/30 07:03:30;;;;;;;90.60;85.40;;;7.20;99.90;;;;;;12588741;28;20411;-84
2024/01/30 07:09:31;;;;;;;90.90;85.80;;;7.00;99.90;;;;;;12610937;28;20619;-83
2024/01/30 07:15:33;;;;;;;92.20;87.10;;;7.00;99.90;;;;;;12589927;28;20063;-84
2024/01/30 07:21:35;;;;;;;86.40;81.65;;;6.90;99.90;;;;;;12613562;28;20055;-83
2024/01/30 07:27:37;;;;;;;86.38;81.47;;;7.00;99.90;;;;;;12596915;28;20096;-84
2024/01/30 07:33:39;;;;;;;85.72;80.93;;;7.10;99.90;;;;;;12621757;28;20051;-83
2024/01/30 07:39:42;;;;;;;91.65;86.78;;;7.20;99.90;;;;;;12590561;28;20059;-84
2024/01/30 07:45:44;;;;;;;94.53;89.35;;;7.10;99.90;;;;;;12602908;28;20052;-84
2024/01/30 07:51:46;;;;;;;94.00;88.93;;;7.10;99.90;;;;;;12617729;28;20435;-83
2024/01/30 07:57:48;;;;;;;94.88;89.75;;;7.10;99.90;;;;;;12604206;28;20481;-84
2024/01/30 08:03:53;;;;;;;92.25;87.32;;;7.10;99.90;;;;;;12595106;28;20067;-83
2024/01/30 08:09:55;;;;;;;92.05;86.95;;;7.30;99.90;;;;;;12613278;28;20084;-83
2024/01/30 08:15:57;;;;;;;93.05;87.85;;;7.50;99.90;;;;;;12622913;28;20059;-83
2024/01/30 08:21:59;;;;;;;92.50;87.40;;;7.60;99.90;;;;;;12616575;28;20104;-83
2024/01/30 08:28:01;;;;;;;92.22;87.22;;;7.60;99.90;;;;;;12624286;28;20059;-83
2024/01/30 08:34:03;;;;;;;93.57;88.47;;;7.80;99.90;;;;;;12626278;28;20053;-84
2024/01/30 08:40:08;;;;;;;89.63;84.50;;;7.80;99.90;;;;;;12618404;28;20048;-83
2024/01/30 08:46:11;;;;;;;89.43;84.63;;;8.10;99.90;;;;;;12607067;28;20488;-84
2024/01/30 08:52:13;;;;;;;97.57;92.28;;;8.30;99.90;;;;;;12591080;28;20084;-83
2024/01/30 08:58:18;;;;;;;103.00;97.50;;;8.40;99.90;;;;;;12637212;28;20048;-84
2024/01/30 09:04:20;;;;;;;108.43;102.53;;;8.20;99.90;;;;;;12603155;28;20048;-84
2024/01/30 09:10:26;;;;;;;104.80;99.25;;;7.90;99.90;;;;;;12604355;28;20098;-83
2024/01/30 09:16:29;;;;;;;96.20;91.07;;;7.90;99.90;;;;;;12602762;28;20053;-84
2024/01/30 09:22:31;;;;;;;97.38;92.13;;;8.00;99.90;;;;;;12613641;28;20097;-84
2024/01/30 09:28:33;;;;;;;96.30;91.05;;;8.20;99.90;;;;;;12615638;28;20496;-84
2024/01/30 09:34:35;;;;;;;97.75;92.22;;;8.30;99.90;;;;;;12620829;28;20150;-83
2024/01/30 09:40:37;;;;;;;92.82;88.03;;;8.40;99.90;;;;;;12609745;28;20165;-84
2024/01/30 09:46:45;;;;;;;93.43;88.40;;;8.60;99.90;;;;;;12623399;28;20429;-85
2024/01/30 09:52:47;;;;;;;94.22;89.22;;;8.80;99.90;;;;;;12621389;28;20067;-84
2024/01/30 09:58:49;;;;;;;89.88;85.28;;;9.00;99.90;;;;;;12619032;28;20098;-84
2024/01/30 10:04:52;;;;;;;90.97;86.07;;;9.20;99.90;;;;;;12618472;28;20064;-84
2024/01/30 10:10:54;;;;;;;90.10;85.30;;;9.30;99.90;;;;;;12603706;28;20056;-83
2024/01/30 10:16:58;;;;;;;94.20;89.07;;;9.50;99.90;;;;;;12589663;28;20075;-85
2024/01/30 10:23:00;;;;;;;98.80;93.63;;;9.60;99.90;;;;;;12616722;28;20045;-83
2024/01/30 10:29:02;;;;;;;97.18;92.00;;;9.60;99.90;;;;;;12604533;28;20051;-79
2024/01/30 10:35:04;;;;;;;95.20;90.30;;;9.60;99.90;;;;;;12604292;28;20060;-79
2024/01/30 10:41:08;;;;;;;95.13;90.15;;;9.60;99.90;;;;;;12632145;28;20543;-79
2024/01/30 10:47:13;;;;;;;95.38;90.43;;;9.60;99.90;;;;;;12603383;28;20044;-77
2024/01/30 10:53:17;;;;;;;91.80;87.03;;;9.80;99.90;;;;;;12588917;28;20063;-78
2024/01/30 10:59:21;;;;;;;86.03;81.43;;;9.80;99.90;;;;;;12604815;28;20060;-78
2024/01/30 11:05:28;;;;;;;84.90;80.30;;;10.00;99.90;;;;;;12628578;28;20497;-78
2024/01/30 11:12:00;;;;;;;82.88;78.68;;;10.30;99.90;;;;;;12623153;28;20544;-78
2024/01/30 11:18:02;;;;;;;87.80;82.97;;;10.70;99.90;;;;;;12615461;28;20546;-79
2024/01/30 11:24:06;;;;;;;89.18;84.55;;;10.90;99.90;;;;;;12601494;28;20044;-79
2024/01/30 11:30:08;;;;;;;88.45;83.75;;;11.20;99.90;;;;;;12597014;28;20052;-78
2024/01/30 11:36:13;;;;;;;97.65;92.80;;;11.50;99.90;;;;;;12618987;28;20098;-78
2024/01/30 11:42:15;;;;;;;99.68;94.38;;;11.50;99.90;;;;;;12617789;28;20040;-84
2024/01/30 11:48:17;;;;;;;98.25;93.38;;;11.50;99.90;;;;;;12587211;28;20063;-84
2024/01/30 11:54:19;;;;;;;94.65;89.82;;;11.50;99.90;;;;;;12605322;28;20065;-85
2024/01/30 12:00:25;;;;;;;103.22;98.20;;;11.50;99.90;;;;;;12582236;28;20074;-85
2024/01/30 12:06:27;;;;;;;104.50;99.20;;;11.50;99.90;;;;;;12603982;28;20072;-84
2024/01/30 12:12:30;;;;;;;101.55;96.45;;;11.50;99.90;;;;;;12594813;28;20052;-84
2024/01/30 12:18:32;;;;;;;96.47;91.47;;;11.60;99.90;;;;;;12628729;28;20048;-85
2024/01/30 12:24:35;;;;;;;93.85;89.05;;;11.70;99.90;;;;;;12617163;28;20122;-85
2024/01/30 12:30:37;;;;;;;97.55;92.50;;;11.80;99.90;;;;;;12625083;28;20084;-84
2024/01/30 12:36:39;;;;;;;94.95;90.20;;;11.80;99.90;;;;;;12591009;28;20080;-86
2024/01/30 12:42:42;;;;;;;98.38;93.30;;;11.60;99.90;;;;;;12617451;28;20645;-85
2024/01/30 12:48:44;;;;;;;96.93;91.53;;;11.60;99.90;;;;;;12624007;28;20055;-83
2024/01/30 12:54:50;;;;;;;102.70;97.57;;;11.50;99.90;;;;;;12603257;28;20061;-84
2024/01/30 13:00:53;;;;;;;102.90;97.60;;;11.40;99.90;;;;;;12619019;28;20052;-83
2024/01/30 13:06:56;;;;;;;99.32;93.88;;;11.30;99.90;;;;;;12629236;28;20178;-83
2024/01/30 13:12:59;;;;;;;99.93;94.38;;;11.20;99.90;;;;;;12637360;28;20139;-84
2024/01/30 13:19:02;;;;;;;93.18;88.07;;;11.20;99.90;;;;;;12625212;28;20048;-83
2024/01/30 13:25:04;;;;;;;97.60;92.57;;;11.20;99.90;;;;;;12648978;28;20515;-84
2024/01/30 13:31:06;;;;;;;104.97;99.45;;;11.10;99.90;;;;;;12615236;28;20052;-85
2024/01/30 13:37:08;;;;;;;101.45;96.38;;;11.10;99.90;;;;;;12583073;28;20424;-85
2024/01/30 13:43:10;;;;;;;103.47;98.30;;;11.10;99.90;;;;;;12614903;28;20052;-85
2024/01/30 13:49:12;;;;;;;107.22;101.50;;;11.10;99.90;;;;;;12605611;28;20302;-84
2024/01/30 13:55:15;;;;;;;110.25;104.68;;;11.10;99.90;;;;;;12597511;28;20538;-85
2024/01/30 14:01:17;;;;;;;110.88;105.00;;;11.20;99.90;;;;;;12605757;28;20067;-84
2024/01/30 14:07:19;;;;;;;112.75;106.85;;;11.10;99.90;;;;;;12593883;28;20507;-85
2024/01/30 14:13:22;;;;;;;114.28;108.25;;;11.10;99.90;;;;;;12616387;28;20522;-82
2024/01/30 14:19:24;;;;;;;115.90;109.70;;;11.10;99.90;;;;;;12599712;28;20494;-83
2024/01/30 14:25:26;;;;;;;114.47;108.38;;;11.20;99.90;;;;;;12608216;28;20411;-84
2024/01/30 14:31:28;;;;;;;115.68;109.63;;;11.20;99.90;;;;;;12596079;28;20056;-85
2024/01/30 14:37:30;;;;;;;119.22;112.93;;;11.20;99.90;;;;;;12601978;28;20527;-86
2024/01/30 14:43:32;;;;;;;124.85;118.32;;;11.30;99.90;;;;;;12590374;28;20071;-81
2024/01/30 14:49:34;;;;;;;119.80;113.40;;;11.20;99.90;;;;;;12596487;28;20109;-83
2024/01/30 14:55:36;;;;;;;121.70;115.28;;;11.20;99.90;;;;;;12610885;28;20056;-84
2024/01/30 15:01:38;;;;;;;113.45;107.53;;;11.20;99.90;;;;;;12610136;28;20048;-86
2024/01/30 15:07:40;;;;;;;110.30;104.20;;;11.30;99.90;;;;;;12607392;28;20040;-85
2024/01/30 15:13:43;;;;;;;105.45;99.72;;;11.30;99.90;;;;;;12637610;28;20515;-83
2024/01/30 15:19:45;;;;;;;104.35;98.70;;;11.20;99.90;;;;;;12613269;28;20427;-84
2024/01/30 15:25:47;;;;;;;103.07;97.57;;;11.10;99.90;;;;;;12609822;28;20039;-84
2024/01/30 15:31:49;;;;;;;97.72;92.10;;;11.20;99.90;;;;;;12608922;28;20048;-83
2024/01/30 15:37:51;;;;;;;96.68;91.35;;;11.20;99.90;;;;;;12617955;28;20135;-83
2024/01/30 15:43:53;;;;;;;96.63;91.53;;;11.10;99.90;;;;;;12594587;28;20511;-83
2024/01/30 15:49:55;;;;;;;94.72;89.60;;;11.10;99.90;;;;;;12602117;28;20059;-84
2024/01/30 15:55:57;;;;;;;95.55;90.25;;;11.10;99.90;;;;;;12588128;28;20113;-84
2024/01/30 16:01:59;;;;;;;93.32;88.18;;;11.00;99.90;;;;;;12578048;28;20059;-84
2024/01/30 16:08:01;;;;;;;92.20;86.90;;;10.90;99.90;;;;;;12577145;28;20044;-81
2024/01/30 16:14:03;;;;;;;86.57;81.55;;;10.80;99.90;;;;;;12548008;28;20060;-85
2024/01/30 16:20:06;;;;;;;87.40;82.63;;;10.80;99.90;;;;;;12580237;28;20521;-85
2024/01/30 16:26:08;;;;;;;90.38;85.18;;;10.70;99.90;;;;;;12582710;28;20103;-85
2024/01/30 16:32:10;;;;;;;93.70;88.55;;;10.70;99.90;;;;;;12566474;28;20087;-84
2024/01/30 16:38:12;;;;;;;94.53;89.20;;;10.70;99.90;;;;;;12560174;28;20094;-84
2024/01/30 16:44:14;;;;;;;94.85;89.63;;;10.70;99.90;;;;;;12563193;28;20095;-84
2024/01/30 16:50:16;;;;;;;97.53;91.93;;;10.70;99.90;;;;;;12577876;28;20135;-81
2024/01/30 16:56:18;;;;;;;98.25;92.60;;;10.70;99.90;;;;;;12608050;28;20039;-80
2024/01/30 17:02:20;;;;;;;87.50;82.45;;;10.60;99.90;;;;;;12640807;28;20052;-83
2024/01/30 17:08:22;;;;;;;80.43;75.93;;;10.70;99.90;;;;;;12630341;28;20043;-82
2024/01/30 17:14:24;;;;;;;69.45;65.55;;;10.90;99.90;;;;;;12629359;28;20044;-83
2024/01/30 17:20:25;;;;;;;74.70;70.60;;;10.80;99.90;;;;;;12621496;28;20053;-84
2024/01/30 17:26:28;;;;;;;60.55;57.15;;;10.70;99.90;;;;;;12615296;28;20041;-82
2024/01/30 17:32:31;;;;;;;60.03;56.83;;;10.70;99.90;;;;;;12573400;28;20178;-78
2024/01/30 17:38:32;;;;;;;58.53;55.35;;;10.50;99.90;;;;;;12571740;28;20045;-79
2024/01/30 17:44:39;;;;;;;57.22;53.90;;;10.30;99.90;;;;;;12576436;28;20053;-79
2024/01/30 17:50:41;;;;;;;56.22;53.22;;;10.20;99.90;;;;;;12569273;28;20091;-78
2024/01/30 17:56:46;;;;;;;58.75;55.25;;;9.90;99.90;;;;;;12570744;28;20492;-78
2024/01/30 18:02:48;;;;;;;57.50;54.50;;;9.80;99.90;;;;;;12581495;28;20061;-80
2024/01/30 18:08:50;;;;;;;55.03;52.03;;;9.70;99.90;;;;;;12568925;28;20499;-80
2024/01/30 18:14:52;;;;;;;52.08;48.97;;;9.50;99.90;;;;;;12572371;28;20100;-78
2024/01/30 18:20:54;;;;;;;58.97;55.67;;;9.50;99.90;;;;;;12559415;28;20174;-77
2024/01/30 18:26:56;;;;;;;54.60;51.47;;;9.50;99.90;;;;;;12573085;28;20083;-79
2024/01/30 18:32:58;;;;;;;52.90;50.00;;;9.50;99.90;;;;;;12555262;28;20095;-77
2024/01/30 18:39:00;;;;;;;55.70;52.60;;;9.50;99.90;;;;;;12557815;28;20060;-85
2024/01/30 18:45:03;;;;;;;55.10;51.92;;;9.50;99.90;;;;;;12574352;28;20056;-84
2024/01/30 18:51:05;;;;;;;58.42;55.35;;;9.50;99.90;;;;;;12576512;28;20072;-82
2024/01/30 18:57:08;;;;;;;53.80;51.00;;;9.40;99.90;;;;;;12565650;28;20057;-83
2024/01/30 19:03:09;;;;;;;47.83;45.22;;;9.40;99.90;;;;;;12572346;28;20083;-84
2024/01/30 19:09:12;;;;;;;54.72;51.83;;;9.30;99.90;;;;;;12560774;28;20540;-83
2024/01/30 19:15:14;;;;;;;56.97;54.05;;;9.40;99.90;;;;;;12572590;28;20063;-85
2024/01/30 19:21:16;;;;;;;50.25;47.55;;;9.30;99.90;;;;;;12563564;28;20485;-83
2024/01/30 19:27:18;;;;;;;55.80;52.80;;;9.30;99.90;;;;;;12578276;28;20063;-83
2024/01/30 19:33:20;;;;;;;64.90;61.58;;;9.30;99.90;;;;;;12557168;28;20523;-83
2024/01/30 19:39:22;;;;;;;54.92;52.13;;;9.10;99.90;;;;;;12569975;28;20432;-83
2024/01/30 19:45:24;;;;;;;56.10;53.17;;;9.10;99.90;;;;;;12564551;28;20040;-81
2024/01/30 19:51:26;;;;;;;59.03;56.03;;;9.10;99.90;;;;;;12573998;28;20060;-79
2024/01/30 19:57:28;;;;;;;67.40;63.80;;;9.00;99.90;;;;;;12594402;28;20059;-81
2024/01/30 20:03:30;;;;;;;58.00;54.83;;;8.90;99.90;;;;;;12619274;28;20606;-78
2024/01/30 20:09:32;;;;;;;60.13;56.95;;;8.80;99.90;;;;;;12603193;28;20052;-79
2024/01/30 20:15:33;;;;;;;58.15;55.05;;;8.80;99.90;;;;;;12607171;28;20056;-80
2024/01/30 20:21:36;;;;;;;57.90;54.80;;;8.70;99.90;;;;;;12604291;28;20052;-78
2024/01/30 20:27:39;;;;;;;58.08;54.88;;;8.70;99.90;;;;;;12591659;28;20048;-82
2024/01/30 20:33:41;;;;;;;59.08;55.78;;;8.70;99.90;;;;;;12607902;28;20090;-82
2024/01/30 20:39:42;;;;;;;56.22;53.03;;;8.60;99.90;;;;;;12627539;28;20055;-78
2024/01/30 20:45:44;;;;;;;56.10;52.97;;;8.60;99.90;;;;;;12602522;28;20055;-78
2024/01/30 20:51:46;;;;;;;56.83;53.53;;;8.40;99.90;;;;;;12635238;28;20598;-79
2024/01/30 20:57:48;;;;;;;53.13;49.97;;;8.40;99.90;;;;;;12627269;28;20059;-79
2024/01/30 21:03:50;;;;;;;54.50;51.40;;;8.30;99.90;;;;;;12598249;28;20135;-83
2024/01/30 21:09:52;;;;;;;52.00;49.05;;;8.30;99.90;;;;;;12589701;28;20187;-82
2024/01/30 21:15:54;;;;;;;49.63;46.72;;;8.10;99.90;;;;;;12615987;28;20420;-84
2024/01/30 21:21:56;;;;;;;54.58;51.47;;;8.20;99.90;;;;;;12602214;28;20150;-84
2024/01/30 21:27:58;;;;;;;53.75;50.58;;;8.10;99.90;;;;;;12604530;28;20075;-83
2024/01/30 21:34:00;;;;;;;55.85;52.45;;;8.10;99.90;;;;;;12621849;28;20056;-83
2024/01/30 21:40:03;;;;;;;53.35;50.05;;;8.10;99.90;;;;;;12612646;28;20048;-84
2024/01/30 21:46:06;;;;;;;45.97;43.17;;;7.90;99.90;;;;;;12598889;28;20409;-83
2024/01/30 21:52:08;;;;;;;48.85;45.85;;;7.90;99.90;;;;;;12588218;28;20158;-83
2024/01/30 21:58:10;;;;;;;49.45;46.45;;;7.90;99.90;;;;;;12601235;28;20079;-79
2024/01/30 22:04:12;;;;;;;51.85;48.65;;;7.80;99.90;;;;;;12636454;28;20102;-82
2024/01/30 22:10:14;;;;;;;59.58;56.15;;;7.80;99.90;;;;;;12609609;28;20056;-82
2024/01/30 22:16:16;;;;;;;66.28;62.42;;;7.70;99.90;;;;;;12604337;28;20431;-85
2024/01/30 22:22:18;;;;;;;61.05;57.42;;;7.50;99.90;;;;;;12618968;28;20058;-85
2024/01/30 22:28:20;;;;;;;54.17;51.22;;;7.30;99.90;;;;;;12593892;28;20044;-82
2024/01/30 22:34:23;;;;;;;45.88;43.42;;;7.10;99.90;;;;;;12602936;28;20148;-83
2024/01/30 22:40:25;;;;;;;43.22;40.97;;;7.10;99.90;;;;;;12616264;28;20040;-83
2024/01/30 22:46:27;;;;;;;43.50;41.10;;;7.10;99.90;;;;;;12620609;28;20092;-84
2024/01/30 22:52:29;;;;;;;45.65;43.35;;;7.00;99.90;;;;;;12574420;28;20053;-82
2024/01/30 22:58:31;;;;;;;40.60;38.30;;;6.90;99.90;;;;;;12504976;28;20073;-82
2024/01/30 23:04:33;;;;;;;38.47;36.30;;;6.90;99.90;;;;;;12500891;28;20136;-83
2024/01/30 23:10:35;;;;;;;43.28;41.03;;;6.90;99.90;;;;;;12499570;28;20122;-82
2024/01/30 23:16:37;;;;;;;43.90;41.50;;;6.90;99.90;;;;;;12506755;28;20144;-83
2024/01/30 23:22:39;;;;;;;44.00;41.50;;;6.90;99.90;;;;;;12502686;28;20470;-77
2024/01/30 23:28:41;;;;;;;43.72;41.22;;;6.90;99.90;;;;;;12506430;28;20623;-78
2024/01/30 23:34:44;;;;;;;48.45;45.85;;;6.80;99.90;;;;;;12502577;28;20121;-78
2024/01/30 23:40:48;;;;;;;42.58;40.38;;;6.90;99.90;;;;;;12496347;28;20088;-78
2024/01/30 23:46:50;;;;;;;45.38;43.00;;;6.90;99.90;;;;;;12498060;28;20048;-78
2024/01/30 23:52:52;;;;;;;41.67;39.33;;;6.90;99.90;;;;;;12537690;28;20532;-78
2024/01/30 23:58:54;;;;;;;40.78;38.63;;;6.80;99.90;;;;;;12597789;28;20056;-78
